| time (UTC) | temp C | wind direction | speed KPH | gust KPH | rain 1hr cm | rain 24hr cm | rain mn cm | humidity % | barometer mb |
| 20260507110346 | 10 | 100 | 0.0 | 12.9 | 0.00 | 1.42 | 0.61 | 88 | 1008.1 |
| 20260507104346 | 9 | 39 | 1.6 | 12.9 | 0.00 | 1.42 | 0.61 | 89 | 1008.1 |
| 20260507102346 | 9 | 45 | 0.0 | 12.9 | 0.00 | 1.42 | 0.61 | 89 | 1007.9 |
| 20260507100346 | 9 | 41 | 1.6 | 12.9 | 0.00 | 1.47 | 0.61 | 90 | 1007.7 |
| 20260507094345 | 10 | 45 | 0.0 | 12.9 | 0.00 | 1.47 | 0.61 | 92 | 1007.3 |
| 20260507092345 | 9 | 84 | 0.0 | 12.9 | 0.00 | 1.52 | 0.61 | 94 | 1007.2 |
| 20260507090345 | 8 | 45 | 0.0 | 12.9 | 0.00 | 1.57 | 0.61 | 94 | 1007.1 |
| 20260507084344 | 8 | 54 | 1.6 | 12.9 | 0.00 | 1.63 | 0.61 | 95 | 1007.0 |
| 20260507082344 | 8 | 91 | 0.0 | 12.9 | 0.00 | 1.68 | 0.61 | 95 | 1006.9 |
| 20260507080344 | 7 | 65 | 0.0 | 12.9 | 0.05 | 1.73 | 0.61 | 95 | 1006.8 |
| 20260507074345 | 7 | 59 | 0.0 | 12.9 | 0.05 | 1.78 | 0.61 | 95 | 1006.6 |
| 20260507072343 | 7 | 45 | 0.0 | 12.9 | 0.05 | 1.83 | 0.61 | 95 | 1006.4 |
| 20260507070343 | 7 | 90 | 0.0 | 12.9 | 0.00 | 1.83 | 0.56 | 95 | 1006.2 |
| 20260507064343 | 7 | 51 | 0.0 | 12.9 | 0.00 | 1.88 | 0.56 | 96 | 1006.1 |
| 20260507062343 | 7 | 46 | 0.0 | 12.9 | 0.00 | 1.96 | 0.56 | 96 | 1005.8 |
| 20260507060342 | 6 | 53 | 0.0 | 12.9 | 0.00 | 2.06 | 0.56 | 96 | 1005.5 |
| 20260507054342 | 6 | 68 | 0.0 | 12.9 | 0.05 | 2.11 | 0.56 | 96 | 1005.3 |
| 20260507052342 | 6 | 7 | 0.0 | 12.9 | 0.05 | 2.16 | 0.56 | 96 | 1005.0 |
| 20260507050341 | 6 | 68 | 0.0 | 12.9 | 0.05 | 2.26 | 0.56 | 96 | 1004.9 |
| 20260507044341 | 6 | 40 | 0.0 | 12.9 | 0.05 | 2.26 | 0.51 | 96 | 1004.6 |
| 20260507042341 | 6 | 45 | 0.0 | 12.9 | 0.05 | 2.31 | 0.51 | 96 | 1004.3 |
| 20260507040341 | 6 | 45 | 0.0 | 12.9 | 0.05 | 2.41 | 0.51 | 95 | 1004.2 |
| 20260507034340 | 7 | 50 | 0.0 | 12.9 | 0.00 | 2.41 | 0.46 | 95 | 1003.9 |
| 20260507032340 | 7 | 46 | 0.0 | 12.9 | 0.05 | 2.46 | 0.46 | 95 | 1003.8 |
| 20260507030340 | 7 | 49 | 0.0 | 12.9 | 0.05 | 2.51 | 0.46 | 95 | 1003.6 |
| 20260507024339 | 7 | 64 | 0.0 | 12.9 | 0.05 | 2.57 | 0.46 | 95 | 1003.4 |
| 20260507022339 | 7 | 45 | 0.0 | 12.9 | 0.00 | 2.57 | 0.41 | 95 | 1003.5 |
| 20260507020339 | 7 | 45 | 0.0 | 12.9 | 0.05 | 2.57 | 0.41 | 95 | 1003.2 |
| 20260507014339 | 7 | 60 | 0.0 | 12.9 | 0.15 | 2.57 | 0.41 | 95 | 1003.2 |
| 20260507012338 | 7 | 56 | 0.0 | 12.9 | 0.20 | 2.57 | 0.41 | 95 | 1003.1 |
| 20260507010338 | 7 | 55 | 0.0 | 12.9 | 0.20 | 2.51 | 0.36 | 95 | 1003.1 |
| 20260507004338 | 7 | 22 | 0.0 | 12.9 | 0.15 | 2.41 | 0.25 | 95 | 1003.0 |
| 20260507002337 | 7 | 22 | 0.0 | 12.9 | 0.15 | 2.36 | 0.20 | 95 | 1002.6 |
| 20260507000337 | 7 | 22 | 0.0 | 12.9 | 0.15 | 2.31 | 0.15 | 95 | 1002.6 |
| 20260506234337 | 7 | 14 | 0.0 | 12.9 | 0.10 | 2.26 | 0.10 | 95 | 1002.5 |
| 20260506232337 | 7 | 22 | 0.0 | 12.9 | 0.05 | 2.21 | 0.05 | 95 | 1002.3 |
| 20260506230336 | 7 | 13 | 0.0 | 11.3 | 0.00 | 2.16 | 0.00 | 95 | 1002.3 |
| 20260506224336 | 7 | 53 | 1.6 | 11.3 | 0.00 | 2.16 | 0.00 | 95 | 1002.3 |
| 20260506222336 | 7 | 41 | 0.0 | 11.3 | 0.00 | 2.16 | 0.00 | 95 | 1002.3 |
| 20260506220335 | 8 | 68 | 1.6 | 6.4 | 0.00 | 2.16 | 0.00 | 95 | 1002.2 |
| 20260506214335 | 8 | 72 | 3.2 | 16.1 | 0.15 | 2.16 | 2.16 | 95 | 1001.9 |
| 20260506212337 | 8 | 44 | 0.0 | 16.1 | 0.10 | 2.11 | 2.11 | 95 | 1001.8 |
| 20260506210335 | 8 | 45 | 1.6 | 16.1 | 0.10 | 2.06 | 2.06 | 95 | 1001.8 |
| 20260506204334 | 8 | 1 | 1.6 | 16.1 | 0.10 | 2.01 | 2.01 | 95 | 1001.5 |
| 20260506202334 | 8 | 44 | 0.0 | 16.1 | 0.10 | 2.01 | 2.01 | 95 | 1001.4 |
| 20260506200334 | 8 | 31 | 3.2 | 16.1 | 0.05 | 1.96 | 1.96 | 95 | 1001.4 |
| 20260506194333 | 8 | 18 | 0.0 | 16.1 | 0.00 | 1.91 | 1.91 | 95 | 1001.1 |
| 20260506192333 | 8 | 35 | 0.0 | 16.1 | 0.05 | 1.91 | 1.91 | 95 | 1000.8 |
| 20260506190333 | 8 | 6 | 0.0 | 16.1 | 0.15 | 1.91 | 1.91 | 95 | 1000.6 |
| 20260506184333 | 8 | 22 | 0.0 | 16.1 | 0.20 | 1.91 | 1.91 | 95 | 1000.4 |
| 20260506182333 | 9 | 45 | 0.0 | 16.1 | 0.20 | 1.85 | 1.85 | 95 | 1000.1 |
| 20260506180332 | 9 | 22 | 1.6 | 16.1 | 0.10 | 1.75 | 1.75 | 95 | 1000.2 |
| 20260506174332 | 9 | 22 | 0.0 | 16.1 | 0.05 | 1.70 | 1.70 | 95 | 1000.2 |
| 20260506172331 | 9 | 45 | 0.0 | 16.1 | 0.10 | 1.63 | 1.63 | 95 | 999.9 |
| 20260506170331 | 9 | 22 | 0.0 | 16.1 | 0.15 | 1.63 | 1.63 | 95 | 999.7 |
| 20260506164331 | 9 | 45 | 0.0 | 16.1 | 0.15 | 1.63 | 1.63 | 95 | 999.7 |
| 20260506162331 | 9 | 31 | 0.0 | 16.1 | 0.10 | 1.52 | 1.52 | 95 | 999.8 |
| 20260506160330 | 9 | 22 | 0.0 | 16.1 | 0.10 | 1.47 | 1.47 | 95 | 999.8 |
| 20260506154330 | 9 | 45 | 0.0 | 16.1 | 0.10 | 1.47 | 1.47 | 94 | 999.8 |
| 20260506152330 | 9 | 22 | 0.0 | 16.1 | 0.05 | 1.42 | 1.42 | 94 | 999.8 |
| 20260506150329 | 9 | 22 | 0.0 | 16.1 | 0.00 | 1.37 | 1.37 | 94 | 999.8 |
| 20260506144329 | 9 | 39 | 1.6 | 16.1 | 0.00 | 1.37 | 1.37 | 94 | 999.9 |
| 20260506142329 | 9 | 51 | 1.6 | 16.1 | 0.05 | 1.37 | 1.37 | 94 | 999.9 |
| 20260506140329 | 9 | 48 | 1.6 | 16.1 | 0.05 | 1.37 | 1.37 | 94 | 999.9 |
| 20260506134328 | 9 | 55 | 1.6 | 16.1 | 0.05 | 1.37 | 1.37 | 94 | 999.9 |
| 20260506132328 | 9 | 53 | 0.0 | 16.1 | 0.00 | 1.32 | 1.32 | 94 | 1000.0 |
| 20260506130328 | 9 | 44 | 0.0 | 16.1 | 0.00 | 1.32 | 1.32 | 94 | 1000.0 |
| 20260506124327 | 9 | 58 | 0.0 | 16.1 | 0.00 | 1.32 | 1.32 | 94 | 1000.0 |
| 20260506122327 | 9 | 56 | 0.0 | 16.1 | 0.00 | 1.32 | 1.32 | 94 | 999.9 |
| 20260506120327 | 9 | 62 | 0.0 | 16.1 | 0.00 | 1.32 | 1.32 | 94 | 999.7 |
| 20260506114327 | 9 | 45 | 1.6 | 12.9 | 0.00 | 1.32 | 1.32 | 94 | 999.9 |
| 20260506112326 | 9 | 46 | 1.6 | 12.9 | 0.00 | 1.32 | 1.32 | 94 | 999.8 |